Time;durP1;ratioP1;P1;durP2;ratioP2;P2;SDS_P1;SDS_P2;PMS_P1;PMS_P2;Temp;Humidity;BMP_temperature;BMP_pressure;BME280_temperature;BME280_humidity;BME280_pressure;Samples;Min_cycle;Max_cycle;Signal;HPM_P1;HPM_P2
2022/06/09 00:01:40;;;;;;;20.00;7.30;;;14.50;99.90;;;;;;5051963;28;20064;-66
2022/06/09 00:04:28;;;;;;;16.58;7.47;;;14.40;99.90;;;;;;5052388;28;20041;-65
2022/06/09 00:07:02;;;;;;;11.27;6.53;;;14.40;99.90;;;;;;5053365;28;20036;-65
2022/06/09 00:09:40;;;;;;;9.75;5.95;;;14.40;99.90;;;;;;5052056;28;20590;-64
2022/06/09 00:12:07;;;;;;;15.07;6.95;;;14.40;99.90;;;;;;5053491;28;20447;-65
2022/06/09 00:14:35;;;;;;;13.90;6.15;;;14.30;99.90;;;;;;5051711;28;20041;-64
2022/06/09 00:17:01;;;;;;;17.77;5.55;;;14.30;99.90;;;;;;5052168;28;20079;-66
2022/06/09 00:19:27;;;;;;;15.50;5.50;;;14.30;99.90;;;;;;5051961;28;20107;-64
2022/06/09 00:21:53;;;;;;;19.58;6.40;;;14.20;99.90;;;;;;5051480;28;20064;-64
2022/06/09 00:24:19;;;;;;;15.18;5.40;;;14.20;99.90;;;;;;5051812;28;20518;-65
2022/06/09 00:26:44;;;;;;;16.50;5.43;;;14.10;99.90;;;;;;5052077;28;20033;-66
2022/06/09 00:29:10;;;;;;;16.40;5.35;;;14.10;99.90;;;;;;5053255;28;20033;-66
2022/06/09 00:31:36;;;;;;;18.42;4.95;;;14.10;99.90;;;;;;5052784;28;20147;-64
2022/06/09 00:34:01;;;;;;;16.02;5.03;;;14.10;99.90;;;;;;5052945;28;20369;-66
2022/06/09 00:36:29;;;;;;;14.15;5.20;;;14.00;99.90;;;;;;5051370;28;20045;-63
2022/06/09 00:38:55;;;;;;;13.35;4.47;;;14.00;99.90;;;;;;5052899;28;20033;-66
2022/06/09 00:41:21;;;;;;;15.35;4.65;;;14.00;99.90;;;;;;5052661;28;20034;-65
2022/06/09 00:43:47;;;;;;;16.48;4.97;;;13.90;99.90;;;;;;5051258;28;20033;-64
2022/06/09 00:46:18;;;;;;;17.92;4.68;;;13.90;99.90;;;;;;5051569;28;20033;-66
2022/06/09 00:48:48;;;;;;;15.43;4.63;;;13.80;99.90;;;;;;5052517;28;20041;-66
2022/06/09 00:51:35;;;;;;;18.10;4.50;;;13.80;99.90;;;;;;5051384;28;20037;-64
2022/06/09 00:54:09;;;;;;;15.40;4.50;;;13.80;99.90;;;;;;5050708;28;20090;-66
2022/06/09 00:56:40;;;;;;;14.45;4.57;;;13.80;99.90;;;;;;5050970;28;20044;-65
2022/06/09 00:59:06;;;;;;;15.43;4.68;;;13.70;99.90;;;;;;5052331;28;20041;-64
2022/06/09 01:01:33;;;;;;;16.52;5.80;;;13.60;99.90;;;;;;5050517;28;20045;-63
2022/06/09 01:04:07;;;;;;;16.00;4.50;;;13.60;99.90;;;;;;5051156;28;20426;-65
2022/06/09 01:06:38;;;;;;;16.10;5.05;;;13.60;99.90;;;;;;5052234;28;20037;-66
2022/06/09 01:09:15;;;;;;;15.10;4.77;;;13.50;99.90;;;;;;5052261;28;20040;-64
2022/06/09 01:11:41;;;;;;;21.42;4.93;;;13.50;99.90;;;;;;5044770;28;20372;-66
2022/06/09 01:14:12;;;;;;;14.10;5.03;;;13.40;99.90;;;;;;5051580;28;20391;-65
2022/06/09 01:16:46;;;;;;;16.05;4.53;;;13.40;99.90;;;;;;5050477;28;20107;-65
2022/06/09 01:19:39;;;;;;;12.68;4.60;;;13.50;99.90;;;;;;5050442;28;20048;-67
2022/06/09 01:22:35;;;;;;;14.75;4.45;;;13.40;99.90;;;;;;5051358;28;20044;-65
2022/06/09 01:25:17;;;;;;;19.20;5.68;;;13.40;99.90;;;;;;5051259;28;20064;-65
2022/06/09 01:28:02;;;;;;;19.50;4.40;;;13.40;99.90;;;;;;5051799;28;20476;-65
2022/06/09 01:30:43;;;;;;;13.82;4.53;;;13.40;99.90;;;;;;5045221;28;20044;-65
2022/06/09 01:33:22;;;;;;;12.90;4.47;;;13.30;99.90;;;;;;5051504;28;20128;-65
2022/06/09 01:36:06;;;;;;;12.63;4.13;;;13.30;99.90;;;;;;5051730;28;20063;-66
2022/06/09 01:38:44;;;;;;;11.90;3.88;;;13.30;99.90;;;;;;5051506;28;20435;-65
2022/06/09 01:41:10;;;;;;;14.85;4.18;;;13.30;99.90;;;;;;5050838;28;20068;-64
2022/06/09 01:43:35;;;;;;;11.90;4.20;;;13.30;99.90;;;;;;5051482;28;20080;-65
2022/06/09 01:46:09;;;;;;;17.25;4.32;;;13.30;99.90;;;;;;5049955;28;20498;-66
2022/06/09 01:48:36;;;;;;;11.98;3.85;;;13.30;99.90;;;;;;5051598;28;20062;-66
2022/06/09 01:51:11;;;;;;;13.48;3.50;;;13.20;99.90;;;;;;5051219;28;20043;-64
2022/06/09 01:53:49;;;;;;;13.48;3.65;;;13.20;99.90;;;;;;5050097;28;20048;-64
2022/06/09 01:56:20;;;;;;;9.45;3.35;;;13.20;99.90;;;;;;5049839;28;20052;-65
2022/06/09 01:58:57;;;;;;;12.23;3.60;;;13.20;99.90;;;;;;5050220;28;20083;-64
2022/06/09 02:01:30;;;;;;;10.95;3.80;;;13.20;99.90;;;;;;5051125;28;20098;-67
2022/06/09 02:03:59;;;;;;;10.82;3.63;;;13.10;99.90;;;;;;5051151;28;20377;-66
2022/06/09 02:06:25;;;;;;;10.27;3.65;;;13.10;99.90;;;;;;5049003;28;20096;-65
2022/06/09 02:08:52;;;;;;;14.68;4.13;;;13.10;99.90;;;;;;5051132;28;20163;-66
2022/06/09 02:11:18;;;;;;;12.27;3.70;;;13.00;99.90;;;;;;5049706;28;20056;-65
2022/06/09 02:13:50;;;;;;;12.55;3.22;;;13.10;99.90;;;;;;5051215;28;20405;-65
2022/06/09 02:16:18;;;;;;;13.68;4.07;;;13.00;99.90;;;;;;5050868;28;20433;-65
2022/06/09 02:18:48;;;;;;;10.27;3.83;;;13.00;99.90;;;;;;5049941;28;20372;-66
2022/06/09 02:21:30;;;;;;;13.10;3.90;;;13.00;99.90;;;;;;5050814;28;20116;-64
2022/06/09 02:23:56;;;;;;;18.25;4.38;;;12.90;99.90;;;;;;5049501;28;20059;-66
2022/06/09 02:26:22;;;;;;;14.27;3.90;;;13.00;99.90;;;;;;5050560;28;20060;-65
2022/06/09 02:28:48;;;;;;;11.30;3.47;;;12.90;99.90;;;;;;5050923;28;20079;-65
2022/06/09 02:31:16;;;;;;;10.68;3.42;;;12.90;99.90;;;;;;5050383;28;20033;-63
2022/06/09 02:33:41;;;;;;;11.45;4.47;;;12.90;99.90;;;;;;5050880;28;20040;-65
2022/06/09 02:36:07;;;;;;;7.70;3.45;;;12.80;99.90;;;;;;5049259;28;20041;-66
2022/06/09 02:38:32;;;;;;;8.57;3.42;;;12.80;99.90;;;;;;5050773;28;20060;-64
2022/06/09 02:40:58;;;;;;;7.28;3.47;;;12.80;99.90;;;;;;5049566;28;20124;-65
2022/06/09 02:43:25;;;;;;;8.85;3.70;;;12.80;99.90;;;;;;5050378;28;20412;-66
2022/06/09 02:45:51;;;;;;;10.98;3.70;;;12.80;99.90;;;;;;5049436;28;20385;-65
2022/06/09 02:48:18;;;;;;;9.85;3.60;;;12.80;99.90;;;;;;5050527;28;20037;-65
2022/06/09 02:50:46;;;;;;;10.70;3.92;;;12.80;99.90;;;;;;5049271;28;20115;-66
2022/06/09 02:53:11;;;;;;;11.32;4.15;;;12.80;99.90;;;;;;5048999;28;20052;-66
2022/06/09 02:55:37;;;;;;;12.63;4.10;;;12.80;99.90;;;;;;5050506;28;20477;-65
2022/06/09 02:58:02;;;;;;;9.50;4.88;;;12.70;99.90;;;;;;5049534;28;20438;-64
2022/06/09 03:00:28;;;;;;;13.95;4.40;;;12.80;99.90;;;;;;5049905;28;20068;-66
2022/06/09 03:03:02;;;;;;;10.20;4.30;;;12.80;99.90;;;;;;5045788;28;20120;-64
2022/06/09 03:05:30;;;;;;;15.77;4.68;;;12.80;99.90;;;;;;5048569;28;20044;-66
2022/06/09 03:07:56;;;;;;;9.18;4.15;;;12.80;99.90;;;;;;5048678;28;20392;-65
2022/06/09 03:10:22;;;;;;;9.52;4.55;;;12.80;99.90;;;;;;5050117;28;20056;-64
2022/06/09 03:12:48;;;;;;;13.25;4.70;;;12.80;99.90;;;;;;5050112;28;20037;-65
2022/06/09 03:15:16;;;;;;;15.88;5.43;;;12.80;99.90;;;;;;5050345;28;20037;-66
2022/06/09 03:17:42;;;;;;;15.35;5.50;;;12.90;99.90;;;;;;5051472;28;20120;-64
2022/06/09 03:20:14;;;;;;;14.15;4.95;;;12.90;99.90;;;;;;5054109;28;20120;-64
2022/06/09 03:22:39;;;;;;;14.65;5.30;;;12.90;99.90;;;;;;5052345;28;20056;-66
2022/06/09 03:25:05;;;;;;;14.68;5.20;;;12.90;99.90;;;;;;5052717;28;20039;-66
2022/06/09 03:27:31;;;;;;;12.02;5.10;;;12.90;99.90;;;;;;5052300;28;20546;-64
2022/06/09 03:29:56;;;;;;;14.02;5.07;;;12.90;99.90;;;;;;5052379;28;20547;-65
2022/06/09 03:32:22;;;;;;;14.90;5.43;;;12.90;99.90;;;;;;5052367;28;20411;-64
2022/06/09 03:34:48;;;;;;;12.23;5.30;;;12.80;99.90;;;;;;5053741;28;20048;-64
2022/06/09 03:37:14;;;;;;;15.55;5.22;;;12.90;99.90;;;;;;5052600;28;20048;-66
2022/06/09 03:39:40;;;;;;;9.50;4.00;;;12.80;99.90;;;;;;5052664;28;20056;-65
2022/06/09 03:42:06;;;;;;;12.02;4.40;;;12.80;99.90;;;;;;5052371;28;20083;-65
2022/06/09 03:44:31;;;;;;;13.27;4.95;;;12.80;99.90;;;;;;5052352;28;20051;-66
2022/06/09 03:46:57;;;;;;;13.50;5.03;;;12.80;99.90;;;;;;5054039;28;20041;-66
2022/06/09 03:49:22;;;;;;;18.08;5.53;;;12.80;99.90;;;;;;5053020;28;20076;-66
2022/06/09 03:51:48;;;;;;;11.82;5.10;;;12.80;99.90;;;;;;5052398;28;20072;-66
2022/06/09 03:54:14;;;;;;;20.73;5.65;;;12.80;99.90;;;;;;5052578;28;20466;-65
2022/06/09 03:56:40;;;;;;;14.48;5.60;;;12.90;99.90;;;;;;5052056;28;20048;-65
2022/06/09 03:59:06;;;;;;;19.58;5.65;;;12.90;99.90;;;;;;5052333;28;20045;-64
2022/06/09 04:01:31;;;;;;;20.95;5.57;;;12.90;99.90;;;;;;5053417;28;20400;-66
2022/06/09 04:03:57;;;;;;;17.08;5.57;;;12.90;99.90;;;;;;5052429;28;20099;-63
2022/06/09 04:06:25;;;;;;;22.20;6.00;;;12.90;99.90;;;;;;5052229;28;20107;-66
2022/06/09 04:08:52;;;;;;;15.80;5.53;;;12.90;99.90;;;;;;5053223;28;20068;-65
2022/06/09 04:11:19;;;;;;;22.02;6.13;;;12.90;99.90;;;;;;5053308;28;20514;-65
2022/06/09 04:13:45;;;;;;;14.43;5.18;;;13.00;99.90;;;;;;5053036;28;20044;-64
2022/06/09 04:16:29;;;;;;;16.67;5.80;;;13.00;99.90;;;;;;5053723;28;20037;-65
2022/06/09 04:18:59;;;;;;;16.05;5.43;;;13.10;99.90;;;;;;5052207;28;20488;-65
2022/06/09 04:21:25;;;;;;;19.38;5.63;;;13.10;99.90;;;;;;5052018;28;20040;-66
2022/06/09 04:23:51;;;;;;;18.23;5.68;;;13.10;99.90;;;;;;5051596;28;20045;-64
2022/06/09 04:26:19;;;;;;;11.75;5.10;;;13.20;99.90;;;;;;5053255;28;20060;-64
2022/06/09 04:28:46;;;;;;;15.30;5.47;;;13.30;99.90;;;;;;5050869;28;20045;-66
2022/06/09 04:31:12;;;;;;;14.50;5.10;;;13.30;99.90;;;;;;5051773;28;20124;-64
2022/06/09 04:33:39;;;;;;;20.52;5.05;;;13.40;99.90;;;;;;5053415;28;20040;-64
2022/06/09 04:36:05;;;;;;;11.73;5.05;;;13.40;99.90;;;;;;5052685;28;20384;-65
2022/06/09 04:38:31;;;;;;;18.33;5.47;;;13.40;99.90;;;;;;5053122;28;20147;-64
2022/06/09 04:40:58;;;;;;;19.10;5.60;;;13.50;99.90;;;;;;5051645;28;20487;-65
2022/06/09 04:43:23;;;;;;;13.45;4.88;;;13.50;99.90;;;;;;5052809;28;20036;-66
2022/06/09 04:45:49;;;;;;;13.02;5.60;;;13.60;99.90;;;;;;5052545;28;20037;-64
2022/06/09 04:48:15;;;;;;;13.38;5.00;;;13.60;99.90;;;;;;5051696;28;20040;-64
2022/06/09 04:50:42;;;;;;;13.73;5.53;;;13.60;99.90;;;;;;5053037;28;20037;-64
2022/06/09 04:53:09;;;;;;;11.82;5.30;;;13.70;99.90;;;;;;5045819;28;20056;-64
2022/06/09 04:55:38;;;;;;;18.40;5.07;;;13.70;99.90;;;;;;5052280;28;20049;-65
2022/06/09 04:58:05;;;;;;;11.20;4.72;;;13.70;99.90;;;;;;5051838;28;20033;-65
2022/06/09 05:00:31;;;;;;;14.32;5.25;;;13.80;99.90;;;;;;5051259;28;20041;-65
2022/06/09 05:02:59;;;;;;;11.27;4.65;;;13.90;99.90;;;;;;5052025;28;20049;-66
2022/06/09 05:05:33;;;;;;;9.10;4.68;;;14.00;99.90;;;;;;5052144;28;20090;-67
2022/06/09 05:07:59;;;;;;;11.73;4.15;;;14.10;99.90;;;;;;5051957;28;20565;-64
2022/06/09 05:10:27;;;;;;;9.13;4.20;;;14.20;99.90;;;;;;5052102;28;20091;-63
2022/06/09 05:12:53;;;;;;;11.10;4.03;;;14.30;99.90;;;;;;5052067;28;20430;-64
2022/06/09 05:15:20;;;;;;;10.68;3.30;;;14.40;99.90;;;;;;5052005;28;20567;-65
2022/06/09 05:17:46;;;;;;;10.85;3.60;;;14.40;99.90;;;;;;5051922;28;20036;-64
2022/06/09 05:20:14;;;;;;;7.28;3.45;;;14.50;99.90;;;;;;5051539;28;20077;-65
2022/06/09 05:22:40;;;;;;;10.95;3.33;;;14.50;99.90;;;;;;5050497;28;20517;-64
2022/06/09 05:25:07;;;;;;;9.13;3.42;;;14.50;99.90;;;;;;5051549;28;20091;-65
2022/06/09 05:27:33;;;;;;;6.45;2.90;;;14.50;99.90;;;;;;5050980;28;20484;-63
2022/06/09 05:30:00;;;;;;;7.90;3.28;;;14.50;99.90;;;;;;5050895;28;20090;-65
2022/06/09 05:32:26;;;;;;;7.32;3.20;;;14.40;99.90;;;;;;5051852;28;20499;-63
2022/06/09 05:34:51;;;;;;;7.00;2.58;;;14.50;99.90;;;;;;5052060;28;20048;-65
2022/06/09 05:37:18;;;;;;;10.90;3.10;;;14.40;99.90;;;;;;5050584;28;20041;-65
2022/06/09 05:45:13;;;;;;;8.88;3.88;;;14.50;99.90;;;;;;5051343;28;20122;-66
2022/06/09 05:47:39;;;;;;;8.93;3.45;;;14.50;99.90;;;;;;5051583;28;20120;-64
2022/06/09 05:50:06;;;;;;;9.93;3.67;;;14.50;99.90;;;;;;5051518;28;20480;-64
2022/06/09 05:52:34;;;;;;;6.78;3.15;;;14.60;99.90;;;;;;5051651;28;20041;-65
2022/06/09 05:55:00;;;;;;;9.35;3.40;;;14.70;99.90;;;;;;5051553;28;20033;-63
2022/06/09 05:57:27;;;;;;;7.28;3.25;;;14.80;99.90;;;;;;5049812;28;20154;-65
2022/06/09 05:59:53;;;;;;;6.72;2.72;;;14.90;99.90;;;;;;5051478;28;20033;-65
2022/06/09 06:02:21;;;;;;;7.90;4.00;;;14.90;99.90;;;;;;5050975;28;20084;-65
2022/06/09 06:04:48;;;;;;;10.13;4.20;;;14.90;99.90;;;;;;5051335;28;20040;-65
2022/06/09 06:07:14;;;;;;;9.77;3.95;;;14.90;99.90;;;;;;5049644;28;20060;-64
2022/06/09 06:09:40;;;;;;;11.30;3.92;;;14.90;99.90;;;;;;5051272;28;20472;-65
2022/06/09 06:12:06;;;;;;;9.02;4.47;;;14.90;99.90;;;;;;5051171;28;20048;-66
2022/06/09 06:14:32;;;;;;;7.93;4.28;;;14.90;99.90;;;;;;5049702;28;20041;-64
2022/06/09 06:16:57;;;;;;;8.00;4.65;;;15.00;99.90;;;;;;5051203;28;20068;-66
2022/06/09 06:19:24;;;;;;;7.90;4.85;;;15.00;99.90;;;;;;5050830;28;20057;-65
2022/06/09 06:21:51;;;;;;;9.63;4.78;;;15.10;99.90;;;;;;5050969;28;20080;-65
2022/06/09 06:24:19;;;;;;;9.98;5.78;;;15.10;99.90;;;;;;5049415;28;20049;-64
2022/06/09 06:26:45;;;;;;;13.23;5.05;;;15.10;99.90;;;;;;5049882;28;20108;-65
2022/06/09 06:29:16;;;;;;;10.15;5.85;;;15.10;99.90;;;;;;5049860;28;20041;-63
2022/06/09 06:31:43;;;;;;;12.50;5.40;;;15.20;99.90;;;;;;5051032;28;20392;-65
2022/06/09 06:34:09;;;;;;;10.55;5.65;;;15.30;99.90;;;;;;5050905;28;20037;-66
2022/06/09 06:36:35;;;;;;;9.82;4.97;;;15.30;99.90;;;;;;5050761;28;20091;-65
2022/06/09 06:39:00;;;;;;;8.07;5.38;;;15.40;99.90;;;;;;5050741;28;20029;-64
2022/06/09 06:41:26;;;;;;;7.45;4.75;;;15.60;99.90;;;;;;5049025;28;20049;-66
2022/06/09 06:43:52;;;;;;;9.50;4.60;;;15.80;99.90;;;;;;5047695;28;20037;-65
2022/06/09 06:46:18;;;;;;;8.10;4.40;;;15.90;99.90;;;;;;5048686;28;20036;-64
2022/06/09 06:48:45;;;;;;;6.90;4.00;;;15.90;99.90;;;;;;5048949;28;20127;-65
2022/06/09 06:51:10;;;;;;;8.65;4.30;;;15.90;99.90;;;;;;5048417;28;20033;-64
2022/06/09 06:53:38;;;;;;;8.45;4.40;;;15.80;99.90;;;;;;5050144;28;20048;-64
2022/06/09 06:56:05;;;;;;;8.90;4.63;;;15.80;99.90;;;;;;5048816;28;20052;-64
2022/06/09 06:58:31;;;;;;;8.40;4.43;;;16.00;99.90;;;;;;5049945;28;20080;-65
2022/06/09 07:01:01;;;;;;;8.60;3.75;;;16.20;99.90;;;;;;5048591;28;20099;-64
2022/06/09 07:03:29;;;;;;;8.23;3.80;;;16.50;99.90;;;;;;5047602;28;20106;-65
2022/06/09 07:05:55;;;;;;;6.55;3.28;;;16.60;99.90;;;;;;5050094;28;20044;-65
2022/06/09 07:08:23;;;;;;;6.50;3.00;;;16.50;99.90;;;;;;5050287;28;20048;-65
2022/06/09 07:10:49;;;;;;;6.53;3.17;;;16.60;99.90;;;;;;5032732;28;20553;-66
2022/06/09 07:13:15;;;;;;;6.50;3.00;;;16.50;99.90;;;;;;5050225;28;20423;-65
2022/06/09 07:15:41;;;;;;;6.93;2.75;;;16.60;99.90;;;;;;5049644;28;20033;-64
2022/06/09 07:18:06;;;;;;;6.85;3.33;;;16.80;99.90;;;;;;5050555;28;20065;-66
2022/06/09 07:20:32;;;;;;;7.07;3.97;;;17.00;99.90;;;;;;5050129;28;20179;-66
2022/06/09 07:22:58;;;;;;;5.63;2.90;;;16.90;99.90;;;;;;5048931;28;20116;-65
2022/06/09 07:25:25;;;;;;;7.70;2.78;;;16.90;99.90;;;;;;5050574;28;20402;-65
2022/06/09 07:27:52;;;;;;;5.85;2.67;;;16.80;99.90;;;;;;5050492;28;20033;-66
2022/06/09 07:30:20;;;;;;;5.47;2.95;;;16.80;99.90;;;;;;5049114;28;20045;-65
2022/06/09 07:32:46;;;;;;;5.05;2.35;;;17.00;99.90;;;;;;5050058;28;20037;-65
2022/06/09 07:35:15;;;;;;;7.57;3.10;;;17.10;99.90;;;;;;5050100;28;20040;-66
2022/06/09 07:37:41;;;;;;;4.85;2.00;;;17.20;99.90;;;;;;5049965;28;20037;-66
2022/06/09 07:40:07;;;;;;;7.13;2.13;;;17.30;99.90;;;;;;5050296;28;20041;-65
2022/06/09 07:42:33;;;;;;;5.43;1.90;;;17.40;99.90;;;;;;5049974;28;20033;-65
2022/06/09 07:44:59;;;;;;;3.50;2.00;;;17.70;99.90;;;;;;5050243;28;20104;-65
2022/06/09 07:47:25;;;;;;;6.78;2.03;;;17.60;99.90;;;;;;5048880;28;20053;-66
2022/06/09 07:49:51;;;;;;;4.93;1.67;;;17.60;99.90;;;;;;5048603;28;20048;-65
2022/06/09 07:52:17;;;;;;;8.02;1.65;;;17.50;99.90;;;;;;5050009;28;20088;-65
2022/06/09 07:54:42;;;;;;;6.18;2.00;;;17.40;99.90;;;;;;5048424;28;20049;-64
2022/06/09 07:57:08;;;;;;;4.55;1.75;;;17.50;99.90;;;;;;5049076;28;20446;-65
2022/06/09 07:59:35;;;;;;;3.78;1.30;;;17.60;99.90;;;;;;5048721;28;20045;-65
2022/06/09 08:02:01;;;;;;;3.83;1.40;;;17.70;99.90;;;;;;5048547;28;20053;-65
2022/06/09 08:04:26;;;;;;;3.80;1.10;;;17.80;99.90;;;;;;5052125;28;20043;-66
2022/06/09 08:06:52;;;;;;;5.90;1.17;;;18.00;99.90;;;;;;5053204;28;20064;-65
2022/06/09 08:09:17;;;;;;;4.15;1.23;;;18.10;99.90;;;;;;5053745;28;20091;-65
2022/06/09 08:11:45;;;;;;;5.03;1.17;;;18.30;99.90;;;;;;5053264;28;20048;-64
2022/06/09 08:14:11;;;;;;;5.05;1.10;;;18.20;99.90;;;;;;5052393;28;20041;-64
2022/06/09 08:16:38;;;;;;;3.38;1.20;;;18.20;99.90;;;;;;5053432;28;20033;-64
2022/06/09 08:19:05;;;;;;;2.42;1.20;;;18.30;99.90;;;;;;5051896;28;20075;-66
2022/06/09 08:21:31;;;;;;;6.90;1.17;;;18.30;99.90;;;;;;5052099;28;20045;-65
2022/06/09 08:23:57;;;;;;;5.40;1.20;;;18.20;99.90;;;;;;5052971;28;20041;-65
2022/06/09 08:26:23;;;;;;;4.18;1.00;;;18.00;99.90;;;;;;5053143;28;20144;-65
2022/06/09 08:28:49;;;;;;;5.25;1.20;;;17.90;99.90;;;;;;5051816;28;20124;-65
2022/06/09 08:31:15;;;;;;;3.92;1.17;;;18.10;99.90;;;;;;5052124;28;20052;-66
2022/06/09 08:33:40;;;;;;;5.68;1.75;;;18.10;99.90;;;;;;5053218;28;20040;-65
2022/06/09 08:36:06;;;;;;;7.13;1.08;;;18.10;99.90;;;;;;5047357;28;20098;-65
2022/06/09 08:38:32;;;;;;;7.90;1.80;;;18.10;99.90;;;;;;5051578;28;20029;-65
2022/06/09 08:41:17;;;;;;;5.03;1.00;;;18.00;99.90;;;;;;5052104;28;20045;-65
2022/06/09 08:43:48;;;;;;;3.33;1.10;;;18.00;99.90;;;;;;5051419;28;20423;-65
2022/06/09 08:46:40;;;;;;;5.43;1.20;;;18.00;99.90;;;;;;5052563;28;20036;-65
2022/06/09 08:49:22;;;;;;;4.18;1.00;;;18.20;99.90;;;;;;5052451;28;20033;-65
2022/06/09 08:51:50;;;;;;;5.50;1.20;;;18.20;99.90;;;;;;5050759;28;20080;-66
2022/06/09 08:54:36;;;;;;;6.25;1.10;;;18.20;99.90;;;;;;5052185;28;20041;-66
2022/06/09 08:57:11;;;;;;;5.50;1.25;;;18.40;99.90;;;;;;5051964;28;20044;-64
2022/06/09 08:59:39;;;;;;;5.00;0.95;;;18.50;99.90;;;;;;5052265;28;20041;-66
2022/06/09 09:02:21;;;;;;;2.35;1.05;;;18.70;99.90;;;;;;5051732;28;20076;-65
2022/06/09 09:04:52;;;;;;;4.07;0.90;;;18.60;99.90;;;;;;5052297;28;20041;-64
2022/06/09 09:07:26;;;;;;;5.32;0.90;;;18.70;99.90;;;;;;5050759;28;20359;-64
2022/06/09 09:10:00;;;;;;;7.13;1.23;;;18.70;99.90;;;;;;5052246;28;20037;-65
2022/06/09 09:12:44;;;;;;;5.18;1.65;;;18.70;99.90;;;;;;5051156;28;20045;-65
2022/06/09 09:15:18;;;;;;;4.75;1.08;;;18.80;99.90;;;;;;5051810;28;20040;-65
2022/06/09 09:18:14;;;;;;;4.82;1.13;;;19.10;99.90;;;;;;5052293;28;20402;-65
2022/06/09 09:20:57;;;;;;;6.93;1.05;;;19.20;99.90;;;;;;5052286;28;20040;-65
2022/06/09 09:23:40;;;;;;;3.88;0.95;;;19.40;99.90;;;;;;5050979;28;20065;-64
2022/06/09 09:26:14;;;;;;;;;;;19.50;99.90;;;;;;5051117;28;20032;-65
2022/06/09 09:29:11;;;;;;;4.18;1.17;;;19.30;99.90;;;;;;5050777;28;19921;-65
2022/06/09 09:31:55;;;;;;;3.67;1.10;;;19.30;99.90;;;;;;5050073;28;20117;-66
2022/06/09 09:34:24;;;;;;;7.97;1.20;;;19.30;99.90;;;;;;5051512;28;20044;-65
2022/06/09 09:36:55;;;;;;;4.85;1.25;;;19.50;99.90;;;;;;5051853;28;20037;-64
2022/06/09 09:39:40;;;;;;;8.02;1.00;;;19.70;99.90;;;;;;5051590;28;20082;-64
2022/06/09 09:42:16;;;;;;;6.30;1.42;;;19.60;99.90;;;;;;5050385;28;20455;-65
2022/06/09 09:44:59;;;;;;;5.20;1.10;;;19.70;99.90;;;;;;5050532;28;20387;-65
2022/06/09 09:47:26;;;;;;;2.90;0.82;;;19.90;99.90;;;;;;5051613;28;20511;-66
2022/06/09 09:49:59;;;;;;;3.60;1.02;;;19.70;99.90;;;;;;5033980;28;20048;-66
2022/06/09 09:52:39;;;;;;;;;;;19.90;99.90;;;;;;5050490;28;20045;-65
2022/06/09 09:55:29;;;;;;;6.13;0.95;;;19.80;99.90;;;;;;5033331;28;19921;-65
2022/06/09 09:58:16;;;;;;;5.78;1.08;;;19.90;99.90;;;;;;5050154;28;20045;-66
2022/06/09 10:00:42;;;;;;;4.68;0.90;;;20.10;99.90;;;;;;5049998;28;20079;-65
2022/06/09 10:09:01;;;;;;;5.88;1.08;;;20.40;99.90;;;;;;5051529;28;20048;-65
2022/06/09 10:14:49;;;;;;;6.03;0.90;;;20.60;99.90;;;;;;5051340;28;20087;-65
2022/06/09 10:17:51;;;;;;;3.47;0.90;;;20.80;99.90;;;;;;5050893;28;20041;-65
2022/06/09 10:20:35;;;;;;;3.90;0.80;;;20.80;99.90;;;;;;5042392;28;20504;-65
2022/06/09 10:23:06;;;;;;;3.30;0.90;;;20.80;99.90;;;;;;5049686;28;20041;-65
2022/06/09 10:25:39;;;;;;;3.38;0.70;;;20.70;99.90;;;;;;5046355;28;20053;-65
2022/06/09 10:28:34;;;;;;;3.90;0.88;;;20.70;99.90;;;;;;5048725;28;20095;-66
2022/06/09 10:31:07;;;;;;;4.22;0.75;;;20.70;99.90;;;;;;5050634;28;20051;-65
2022/06/09 10:33:36;;;;;;;3.13;0.70;;;20.70;99.90;;;;;;5050565;28;20416;-65
2022/06/09 10:36:15;;;;;;;4.18;1.08;;;20.70;99.90;;;;;;5050747;28;20044;-64
2022/06/09 10:38:59;;;;;;;5.35;1.00;;;20.90;99.90;;;;;;5049171;28;20041;-65
2022/06/09 10:41:40;;;;;;;2.88;0.70;;;20.60;99.90;;;;;;5050254;28;20041;-65
2022/06/09 10:44:26;;;;;;;3.85;0.90;;;20.60;99.90;;;;;;5049116;28;20044;-65
2022/06/09 10:56:23;;;;;;;5.63;1.00;;;20.70;99.90;;;;;;5050361;28;20053;-65
2022/06/09 10:59:05;;;;;;;2.97;0.70;;;20.80;99.90;;;;;;5049446;28;20476;-65
2022/06/09 11:01:32;;;;;;;;;;;20.90;99.90;;;;;;5050540;28;20060;-67
2022/06/09 11:04:00;;;;;;;4.00;0.95;;;21.10;99.90;;;;;;5050366;28;20295;-66
2022/06/09 11:06:40;;;;;;;5.53;1.00;;;21.20;99.90;;;;;;5049317;28;20059;-66
2022/06/09 11:09:18;;;;;;;3.25;0.85;;;21.00;99.90;;;;;;5050626;28;20423;-66
2022/06/09 11:11:52;;;;;;;3.25;1.27;;;21.00;99.90;;;;;;5050152;28;20052;-66
2022/06/09 11:14:44;;;;;;;5.00;0.90;;;20.80;99.90;;;;;;5049177;28;20043;-66
2022/06/09 11:17:25;;;;;;;;;;;20.80;99.90;;;;;;5050971;28;20036;-64
2022/06/09 11:20:17;;;;;;;6.45;0.90;;;20.70;99.90;;;;;;5050624;28;20295;-66
2022/06/09 11:22:54;;;;;;;6.90;1.00;;;20.50;99.90;;;;;;5049921;28;20056;-65
2022/06/09 11:25:44;;;;;;;8.27;1.00;;;20.60;99.90;;;;;;5049506;28;20065;-66
2022/06/09 11:28:20;;;;;;;4.25;1.15;;;20.60;99.90;;;;;;5049015;28;20045;-65
2022/06/09 11:31:08;;;;;;;4.40;1.02;;;20.60;99.90;;;;;;5050132;28;20045;-67
2022/06/09 11:34:18;;;;;;;5.20;1.20;;;20.70;99.90;;;;;;5048710;28;20048;-65
2022/06/09 11:37:02;;;;;;;7.78;1.30;;;20.70;99.90;;;;;;5048760;28;20084;-66
2022/06/09 11:39:45;;;;;;;3.85;1.30;;;20.30;99.90;;;;;;5054052;28;20585;-65
2022/06/09 11:42:36;;;;;;;4.88;0.90;;;20.20;99.90;;;;;;5053967;28;20468;-64
2022/06/09 11:45:25;;;;;;;4.60;0.73;;;20.30;99.90;;;;;;5052687;28;20044;-65
2022/06/09 11:47:55;;;;;;;4.90;1.27;;;20.20;99.90;;;;;;5052653;28;20128;-66
2022/06/09 11:50:27;;;;;;;4.82;1.08;;;20.10;99.90;;;;;;5052668;28;20047;-65
2022/06/09 11:52:56;;;;;;;4.30;1.10;;;20.00;99.90;;;;;;5052766;28;20052;-64
2022/06/09 11:58:33;;;;;;;4.43;0.88;;;20.10;99.90;;;;;;5052489;28;20053;-66
2022/06/09 12:01:21;;;;;;;4.18;1.10;;;20.00;99.90;;;;;;5053563;28;20419;-66
2022/06/09 12:04:06;;;;;;;3.70;0.80;;;19.90;99.90;;;;;;5052320;28;20080;-66
2022/06/09 12:06:41;;;;;;;3.95;0.73;;;19.80;99.90;;;;;;5052247;28;20048;-66
2022/06/09 12:09:41;;;;;;;2.47;0.80;;;19.80;99.90;;;;;;5052709;28;20480;-65
2022/06/09 12:12:37;;;;;;;2.45;0.73;;;19.80;99.90;;;;;;5014652;28;20053;-65
2022/06/09 12:15:22;;;;;;;4.03;0.90;;;19.90;99.90;;;;;;5013739;28;20491;-65
2022/06/09 12:18:08;;;;;;;5.57;1.35;;;19.80;99.90;;;;;;5011876;28;20061;-64
2022/06/09 12:20:49;;;;;;;6.00;1.15;;;19.80;99.90;;;;;;5014842;28;20103;-65
2022/06/09 12:23:28;;;;;;;4.47;0.90;;;19.60;99.90;;;;;;5012629;28;20167;-66
2022/06/09 12:26:09;;;;;;;4.93;1.20;;;19.50;99.90;;;;;;5030713;28;20030;-64
2022/06/09 12:28:49;;;;;;;4.88;1.20;;;19.40;99.90;;;;;;5030563;28;20041;-66
2022/06/09 12:31:18;;;;;;;5.18;1.17;;;19.30;99.90;;;;;;5030683;28;20511;-65
2022/06/09 12:34:00;;;;;;;3.75;1.00;;;19.30;99.90;;;;;;5030208;28;20045;-66
2022/06/09 12:36:34;;;;;;;4.40;1.10;;;19.30;99.90;;;;;;5030478;28;20047;-66
2022/06/09 12:39:05;;;;;;;3.97;0.93;;;19.30;99.90;;;;;;5030225;28;20486;-66
2022/06/09 12:41:36;;;;;;;6.05;1.52;;;19.40;99.90;;;;;;5014128;28;20492;-65
2022/06/09 12:44:13;;;;;;;4.75;1.45;;;19.50;99.90;;;;;;5030172;28;20068;-63
2022/06/09 12:46:41;;;;;;;5.32;1.25;;;19.60;99.90;;;;;;5025417;28;20037;-67
2022/06/09 12:49:20;;;;;;;4.38;1.73;;;19.60;99.90;;;;;;5032825;28;20052;-66
2022/06/09 12:51:46;;;;;;;5.35;1.20;;;19.50;99.90;;;;;;5052489;28;20492;-66
2022/06/09 12:54:19;;;;;;;6.43;1.23;;;19.50;99.90;;;;;;5052669;28;20041;-66
2022/06/09 12:56:57;;;;;;;3.80;1.10;;;19.50;99.90;;;;;;5052716;28;20108;-65
2022/06/09 12:59:26;;;;;;;7.82;1.73;;;19.60;99.90;;;;;;5051512;28;20025;-66
2022/06/09 13:02:15;;;;;;;7.63;1.83;;;19.70;99.90;;;;;;5050601;28;20124;-66
2022/06/09 13:04:52;;;;;;;7.93;1.50;;;19.70;99.90;;;;;;5051095;28;20099;-67
2022/06/09 13:07:27;;;;;;;8.70;1.20;;;19.60;99.90;;;;;;5051350;28;20124;-67
2022/06/09 13:09:59;;;;;;;6.30;1.02;;;19.60;99.90;;;;;;5052136;28;20153;-66
2022/06/09 13:15:38;;;;;;;6.43;1.30;;;19.60;99.90;;;;;;5052015;28;20041;-65
2022/06/09 13:18:13;;;;;;;5.30;1.30;;;19.80;99.90;;;;;;5049105;28;20041;-66
2022/06/09 13:20:52;;;;;;;4.55;0.95;;;19.70;99.90;;;;;;5052400;28;20480;-65
2022/06/09 13:23:18;;;;;;;6.68;1.00;;;19.60;99.90;;;;;;5050827;28;20025;-65
2022/06/09 13:25:46;;;;;;;5.05;0.93;;;19.50;99.90;;;;;;5052103;28;20151;-65
2022/06/09 13:28:29;;;;;;;4.95;1.20;;;19.50;99.90;;;;;;5050549;28;20378;-65
2022/06/09 13:30:56;;;;;;;8.55;1.77;;;19.50;99.90;;;;;;5050582;28;20067;-66
2022/06/09 13:33:25;;;;;;;7.85;1.73;;;19.40;99.90;;;;;;5050883;28;20044;-67
2022/06/09 13:35:54;;;;;;;9.60;1.75;;;19.20;99.90;;;;;;5051924;28;20047;-64